航空気象通報

ウインドサーファーのための航空気象通報による風予報です。

7/12-14の航空気象通報

2014年07月12日 23時12分49秒 | TAF

羽田空港
TAF RJTT 121105Z 1212/1318 18012KT 9999 FEW030
BECMG 1215/1217 08004KT
BECMG 1303/1306 17013KT
TEMPO 1306/1312 4000 -SHRA BR
日本時間12日21-24時:180度から12ノットの風
13日00-02時:風が変化
02-12時:080度から4ノットの風
12-15時:風が変化
15時-14日03時:170度から13ノットの風

但し、13日15-21時の間:ときどき

静岡空港
TAF RJNS 121106Z 1212/1318 29005KT 9999 FEW030
BECMG 1221/1223 18006KT
TEMPO 1306/1309 4000 SHRA BR FEW003 BKN005
BECMG 1309/1312 24012KT
日本時間12日21時-13日06時:290度から5ノットの風
06-08時:風が変化
08-18時:180度から6ノットの風
18-21時:風が変化
21時-14日03時:240度から12ノットの風

福岡空港
TAF RJFF 121114Z 1212/1318 14012KT 9000 -SHRA FEW010 SCT030 BKN040
TEMPO 1214/1218 3000 SHRA BR
TEMPO 1218/1224 1500 +TSRA BR FEW007 SCT010 BKN020 FEW020CB
TEMPO 1300/1303 4000 SHRA BR
BECMG 1303/1306 32010KT
日本時間12日21時-13日12時:140度から12ノットの風
12-15時:風が変化
15時-14日03時:320度から10ノットの風

但し、13日03-09時の間:ときどき

那覇空港
TAF ROAH 121105Z 1212/1318 19010KT 9999 FEW010
日本時間12日21時-14日03時:190度から10ノットの風

石垣空港
TAF ROIG 121107Z 1212/1318 20010KT 9999 FEW015
日本時間12日21時-14日03時:200度から10ノットの風

マウイのカフルイ空港
PHOG 121138Z 1212/1312 05011KT P6SM FEW030 SCT050
FM121900 05018G28KT P6SM FEW050
FM130500 05011KT P6SM FEW030 FEW050 AMD LTD TO WX VIS AND WIND TIL 121600
ハワイ時間12日02-09時:050度から11ノットの風
09-19時:050度から187ノット、突風28ノット
19時-13日02時:050度から11ノットの風

サイパン空港
PGSN 121139Z 1212/1312 13008KT P6SM VCSH FEW022
マリアナ時間12日22時-13日22時:130度から8ノットの風

ジャンル:
お天気
コメント (1)   この記事についてブログを書く
この記事をはてなブックマークに追加
« 7/11-7/13の航空気象通報 | トップ | 7/13-7/15の航空気象通報 »
最近の画像もっと見る

1 コメント

コメント日が  古い順  |   新しい順
間違い (上松)
2014-07-13 22:31:03
あっ、昨日の投稿、マウイのカフルイ空港の風が突風187ノットになってた。タイプミスすみません。そんな風あり得ないですよね。

コメントを投稿

ブログ作成者から承認されるまでコメントは反映されません。

TAF」カテゴリの最新記事